Time;durP1;ratioP1;P1;durP2;ratioP2;P2;SDS_P1;SDS_P2;PMS_P1;PMS_P2;Temp;Humidity;BMP_temperature;BMP_pressure;BME280_temperature;BME280_humidity;BME280_pressure;Samples;Min_cycle;Max_cycle;Signal;HPM_P1;HPM_P2
2023/03/29 00:02:08;;;;;;;7.60;5.30;;;;;;;;;;5099990;27;20080;-71
2023/03/29 00:04:34;;;;;;;11.02;5.03;;;;;;;;;;5132191;27;20046;-71
2023/03/29 00:07:03;;;;;;;8.45;4.97;;;;;;;;;;5116011;27;20049;-71
2023/03/29 00:09:31;;;;;;;8.65;5.10;;;;;;;;;;5117312;27;20043;-71
2023/03/29 00:11:57;;;;;;;8.13;5.07;;;;;;;;;;5100174;27;20040;-71
2023/03/29 00:14:23;;;;;;;8.23;5.20;;;;;;;;;;5116857;27;20031;-71
2023/03/29 00:16:50;;;;;;;9.02;5.15;;;;;;;;;;5117033;27;20047;-71
2023/03/29 00:19:16;;;;;;;8.93;4.82;;;;;;;;;;5116506;27;20071;-71
2023/03/29 00:21:42;;;;;;;9.27;5.55;;;;;;;;;;5099530;27;20060;-71
2023/03/29 00:24:08;;;;;;;7.70;4.78;;;;;;;;;;5116424;27;20089;-71
2023/03/29 00:26:35;;;;;;;8.23;5.35;;;;;;;;;;5116559;27;20487;-71
2023/03/29 00:29:01;;;;;;;8.35;5.13;;;;;;;;;;5116728;27;20059;-71
2023/03/29 00:31:27;;;;;;;9.38;5.10;;;;;;;;;;5116396;27;20035;-71
2023/03/29 00:33:53;;;;;;;8.90;5.40;;;;;;;;;;5099949;27;20043;-70
2023/03/29 00:36:20;;;;;;;9.88;5.10;;;;;;;;;;5116150;27;20050;-71
2023/03/29 00:38:47;;;;;;;10.27;5.15;;;;;;;;;;5116362;27;20042;-71
2023/03/29 00:41:13;;;;;;;11.05;5.00;;;;;;;;;;5116072;27;20035;-70
2023/03/29 00:43:59;;;;;;;10.07;4.95;;;;;;;;;;5116107;27;20479;-73
2023/03/29 00:46:26;;;;;;;9.10;4.95;;;;;;;;;;5116224;27;20035;-73
2023/03/29 00:48:54;;;;;;;7.93;4.97;;;;;;;;;;5116506;27;20035;-73
2023/03/29 00:51:23;;;;;;;7.25;5.10;;;;;;;;;;5099444;27;20059;-73
2023/03/29 00:53:50;;;;;;;9.60;4.80;;;;;;;;;;5115753;27;20031;-73
2023/03/29 00:56:20;;;;;;;9.95;4.93;;;;;;;;;;5115936;27;20046;-73
2023/03/29 00:58:50;;;;;;;11.88;4.88;;;;;;;;;;5115881;27;20047;-73
2023/03/29 01:01:37;;;;;;;9.25;4.68;;;;;;;;;;5115991;27;20047;-74
2023/03/29 01:04:17;;;;;;;10.05;4.70;;;;;;;;;;5113607;27;20494;-74
2023/03/29 01:06:46;;;;;;;8.35;4.65;;;;;;;;;;5115698;27;20046;-74
2023/03/29 01:09:13;;;;;;;8.98;4.93;;;;;;;;;;5115686;27;20105;-74
2023/03/29 01:11:41;;;;;;;11.88;4.63;;;;;;;;;;5082298;27;20425;-71
2023/03/29 01:14:11;;;;;;;10.55;5.07;;;;;;;;;;5096623;27;20459;-71
2023/03/29 01:16:38;;;;;;;9.13;4.53;;;;;;;;;;5115033;27;20039;-71
2023/03/29 01:19:06;;;;;;;9.05;4.60;;;;;;;;;;5115597;27;20037;-71
2023/03/29 01:21:35;;;;;;;8.00;4.40;;;;;;;;;;5115366;27;20053;-71
2023/03/29 01:24:05;;;;;;;9.20;4.70;;;;;;;;;;5118850;27;20087;-71
2023/03/29 01:26:32;;;;;;;8.52;4.55;;;;;;;;;;5115277;27;20142;-71
2023/03/29 01:29:01;;;;;;;7.30;4.53;;;;;;;;;;5115777;27;20089;-71
2023/03/29 01:31:31;;;;;;;7.90;4.30;;;;;;;;;;5115480;27;20027;-71
2023/03/29 01:34:03;;;;;;;13.90;4.43;;;;;;;;;;5115194;27;20071;-71
2023/03/29 01:36:40;;;;;;;6.97;4.60;;;;;;;;;;5115521;27;20122;-73
2023/03/29 01:39:07;;;;;;;10.05;4.30;;;;;;;;;;5098444;27;20047;-73
2023/03/29 01:41:45;;;;;;;8.65;4.25;;;;;;;;;;5115080;27;20520;-75
2023/03/29 01:44:19;;;;;;;6.90;3.83;;;;;;;;;;5096778;27;20035;-74
2023/03/29 01:46:46;;;;;;;7.32;3.88;;;;;;;;;;5126246;27;20047;-74
2023/03/29 01:49:24;;;;;;;5.43;3.80;;;;;;;;;;5149045;27;20039;-74
2023/03/29 01:51:55;;;;;;;12.27;3.53;;;;;;;;;;5094914;27;20091;-74
2023/03/29 01:54:25;;;;;;;5.68;3.58;;;;;;;;;;5113452;27;20070;-74
2023/03/29 01:56:51;;;;;;;6.85;3.85;;;;;;;;;;5114975;27;20039;-74
2023/03/29 01:59:19;;;;;;;8.52;3.70;;;;;;;;;;5135633;27;20035;-74
2023/03/29 02:01:48;;;;;;;7.55;4.30;;;;;;;;;;5098261;28;20031;-74
2023/03/29 02:04:17;;;;;;;7.45;4.32;;;;;;;;;;5114705;27;20078;-73
2023/03/29 02:06:43;;;;;;;8.75;3.90;;;;;;;;;;5114933;28;20447;-70
2023/03/29 02:09:10;;;;;;;7.95;4.32;;;;;;;;;;5115051;28;20046;-69
2023/03/29 02:11:36;;;;;;;5.30;3.50;;;;;;;;;;5115059;28;20412;-70
2023/03/29 02:14:03;;;;;;;10.55;4.03;;;;;;;;;;5115047;28;20039;-70
2023/03/29 02:16:33;;;;;;;6.05;3.72;;;;;;;;;;5114558;28;20046;-71
2023/03/29 02:19:00;;;;;;;7.13;3.90;;;;;;;;;;5114656;28;20118;-71
2023/03/29 02:21:30;;;;;;;9.40;3.80;;;;;;;;;;5114639;28;20039;-71
2023/03/29 02:23:58;;;;;;;5.60;3.40;;;;;;;;;;5130425;27;20047;-71
2023/03/29 02:26:25;;;;;;;6.47;3.88;;;;;;;;;;5131344;27;20057;-71
2023/03/29 02:28:52;;;;;;;8.45;3.85;;;;;;;;;;5114865;27;20406;-71
2023/03/29 02:31:39;;;;;;;6.03;3.20;;;;;;;;;;5118860;27;21372;-71
2023/03/29 02:34:06;;;;;;;7.65;3.65;;;;;;;;;;5118981;27;20379;-71
2023/03/29 02:36:39;;;;;;;4.18;3.15;;;;;;;;;;5101974;27;20445;-71
2023/03/29 02:39:08;;;;;;;5.55;3.33;;;;;;;;;;5101215;27;20104;-71
2023/03/29 02:41:36;;;;;;;8.13;3.72;;;;;;;;;;5118982;27;20039;-70
2023/03/29 02:44:03;;;;;;;8.60;3.40;;;;;;;;;;5118411;27;20047;-74
2023/03/29 02:46:30;;;;;;;7.55;3.67;;;;;;;;;;5118448;27;20484;-74
2023/03/29 02:48:57;;;;;;;5.30;3.85;;;;;;;;;;5101551;27;20039;-74
2023/03/29 02:51:25;;;;;;;7.32;3.67;;;;;;;;;;5118336;27;20126;-74
2023/03/29 02:53:56;;;;;;;7.60;3.78;;;;;;;;;;5118846;27;20027;-73
2023/03/29 02:56:22;;;;;;;6.18;3.35;;;;;;;;;;5118622;27;20066;-73
2023/03/29 02:58:48;;;;;;;6.60;3.90;;;;;;;;;;5101708;27;20041;-73
2023/03/29 03:01:15;;;;;;;9.20;3.60;;;;;;;;;;5129286;27;20046;-73
2023/03/29 03:03:41;;;;;;;5.63;3.53;;;;;;;;;;5118437;27;20453;-73
2023/03/29 03:06:07;;;;;;;5.35;3.80;;;;;;;;;;5138787;27;20391;-73
2023/03/29 03:08:33;;;;;;;6.30;3.50;;;;;;;;;;5118187;27;20122;-73
2023/03/29 03:10:59;;;;;;;6.40;4.15;;;;;;;;;;5101109;27;20035;-73
2023/03/29 03:13:25;;;;;;;8.30;4.35;;;;;;;;;;5117846;27;20031;-73
2023/03/29 03:15:52;;;;;;;8.25;3.83;;;;;;;;;;5117785;27;20054;-73
2023/03/29 03:18:19;;;;;;;5.72;3.70;;;;;;;;;;5118051;27;20043;-73
2023/03/29 03:20:54;;;;;;;7.07;4.05;;;;;;;;;;5117972;27;20042;-74
2023/03/29 03:23:20;;;;;;;6.15;3.70;;;;;;;;;;5117645;27;20503;-74
2023/03/29 03:25:47;;;;;;;8.05;3.88;;;;;;;;;;5136277;27;20524;-74
2023/03/29 03:28:14;;;;;;;12.57;4.97;;;;;;;;;;5117652;27;20159;-73
2023/03/29 03:30:40;;;;;;;7.75;4.00;;;;;;;;;;5117818;27;20442;-74
2023/03/29 03:33:06;;;;;;;7.63;4.25;;;;;;;;;;5117862;27;20038;-74
2023/03/29 03:35:33;;;;;;;7.78;3.70;;;;;;;;;;5117536;27;20035;-74
2023/03/29 03:38:00;;;;;;;4.85;3.30;;;;;;;;;;5117933;27;20504;-73
2023/03/29 03:40:26;;;;;;;6.18;3.85;;;;;;;;;;5116682;28;20042;-73
2023/03/29 03:42:52;;;;;;;8.95;4.53;;;;;;;;;;5117407;27;20117;-73
2023/03/29 03:45:19;;;;;;;8.63;3.85;;;;;;;;;;5128800;27;20092;-73
2023/03/29 03:47:45;;;;;;;7.80;4.38;;;;;;;;;;5100587;27;20096;-73
2023/03/29 03:50:12;;;;;;;13.02;4.50;;;;;;;;;;5117351;27;20497;-73
2023/03/29 03:52:38;;;;;;;7.22;3.97;;;;;;;;;;5117374;27;20071;-73
2023/03/29 03:55:05;;;;;;;9.13;4.47;;;;;;;;;;5117013;27;20070;-74
2023/03/29 03:57:31;;;;;;;7.45;4.47;;;;;;;;;;5117965;27;20423;-73
2023/03/29 03:59:58;;;;;;;8.02;4.55;;;;;;;;;;5117816;27;20118;-73
2023/03/29 04:02:25;;;;;;;7.68;4.05;;;;;;;;;;5117057;27;20043;-73
2023/03/29 04:04:51;;;;;;;6.63;4.20;;;;;;;;;;5125299;27;20521;-73
2023/03/29 04:07:17;;;;;;;8.90;3.92;;;;;;;;;;5117228;27;20047;-73
2023/03/29 04:09:44;;;;;;;7.32;4.30;;;;;;;;;;5125155;27;20031;-73
2023/03/29 04:12:10;;;;;;;9.90;4.47;;;;;;;;;;5100068;27;20079;-73
2023/03/29 04:14:36;;;;;;;9.93;4.35;;;;;;;;;;5117027;27;20074;-74
2023/03/29 04:17:02;;;;;;;6.80;4.72;;;;;;;;;;5116850;27;20042;-74
2023/03/29 04:19:28;;;;;;;10.18;4.38;;;;;;;;;;5116795;27;20039;-74
2023/03/29 04:21:55;;;;;;;10.25;4.38;;;;;;;;;;5116896;27;20061;-74
2023/03/29 04:24:23;;;;;;;7.22;4.40;;;;;;;;;;5113137;28;20057;-74
2023/03/29 04:26:49;;;;;;;11.15;5.05;;;;;;;;;;5144074;27;20074;-74
2023/03/29 04:29:15;;;;;;;9.73;4.93;;;;;;;;;;5096515;28;20436;-74
2023/03/29 04:31:41;;;;;;;7.03;5.05;;;;;;;;;;5113106;28;20035;-74
2023/03/29 04:34:07;;;;;;;7.05;4.35;;;;;;;;;;5113254;28;20061;-73
2023/03/29 04:36:34;;;;;;;10.68;5.00;;;;;;;;;;5112810;28;20039;-73
2023/03/29 04:39:00;;;;;;;11.63;4.95;;;;;;;;;;5113077;28;20043;-70
2023/03/29 04:41:26;;;;;;;6.75;4.60;;;;;;;;;;5112962;28;20120;-71
2023/03/29 04:43:52;;;;;;;9.20;4.85;;;;;;;;;;5113122;28;20518;-71
2023/03/29 04:46:18;;;;;;;7.75;5.20;;;;;;;;;;5095831;28;20097;-70
2023/03/29 04:48:44;;;;;;;8.02;4.80;;;;;;;;;;5112880;28;20119;-70
2023/03/29 04:51:10;;;;;;;9.57;5.03;;;;;;;;;;5112656;28;20043;-70
2023/03/29 04:53:36;;;;;;;9.27;4.57;;;;;;;;;;5095197;28;20036;-70
2023/03/29 04:56:03;;;;;;;10.30;5.53;;;;;;;;;;5112945;28;20036;-71
2023/03/29 04:58:29;;;;;;;10.25;5.70;;;;;;;;;;5112707;28;20119;-71
2023/03/29 05:00:58;;;;;;;11.70;6.03;;;;;;;;;;5106743;28;20031;-71
2023/03/29 05:03:25;;;;;;;9.10;4.95;;;;;;;;;;5111958;28;20122;-70
2023/03/29 05:05:51;;;;;;;9.90;5.00;;;;;;;;;;5112386;28;20124;-71
2023/03/29 05:08:17;;;;;;;12.50;5.82;;;;;;;;;;5111828;28;20047;-70
2023/03/29 05:10:44;;;;;;;9.80;5.55;;;;;;;;;;5112463;28;20361;-70
2023/03/29 05:13:11;;;;;;;10.85;5.63;;;;;;;;;;5112286;28;20040;-70
2023/03/29 05:15:37;;;;;;;8.50;5.20;;;;;;;;;;5111829;28;20031;-70
2023/03/29 05:18:03;;;;;;;11.32;5.90;;;;;;;;;;5095316;28;20442;-70
2023/03/29 05:20:30;;;;;;;11.23;5.90;;;;;;;;;;5112140;28;20045;-70
2023/03/29 05:22:56;;;;;;;12.45;6.32;;;;;;;;;;5113455;27;20046;-71
2023/03/29 05:25:22;;;;;;;9.68;5.82;;;;;;;;;;5098777;27;20057;-70
2023/03/29 05:27:49;;;;;;;11.43;6.70;;;;;;;;;;5115197;27;20487;-71
2023/03/29 05:30:15;;;;;;;10.15;6.47;;;;;;;;;;5115117;27;20062;-70
2023/03/29 05:32:42;;;;;;;9.30;5.95;;;;;;;;;;5114945;27;20042;-71
2023/03/29 05:35:10;;;;;;;13.30;6.97;;;;;;;;;;5098630;27;20196;-71
2023/03/29 05:37:36;;;;;;;12.45;6.82;;;;;;;;;;5121419;27;20472;-69
2023/03/29 05:40:06;;;;;;;10.48;6.75;;;;;;;;;;5114959;27;20046;-70
2023/03/29 05:42:32;;;;;;;13.27;7.60;;;;;;;;;;5115138;27;20130;-70
2023/03/29 05:44:58;;;;;;;14.18;7.65;;;;;;;;;;5114981;27;20039;-70
2023/03/29 05:47:25;;;;;;;15.48;7.93;;;;;;;;;;5114971;27;20441;-72
2023/03/29 05:49:51;;;;;;;15.10;7.80;;;;;;;;;;5098211;27;20374;-71
2023/03/29 05:52:18;;;;;;;12.65;7.32;;;;;;;;;;5080997;27;20039;-72
2023/03/29 05:54:44;;;;;;;11.68;7.72;;;;;;;;;;5130547;27;20446;-72
2023/03/29 05:57:10;;;;;;;12.00;8.20;;;;;;;;;;5114840;27;20050;-71
2023/03/29 05:59:37;;;;;;;17.48;8.27;;;;;;;;;;5114511;27;20122;-71
2023/03/29 06:02:03;;;;;;;12.70;7.60;;;;;;;;;;5115020;27;20066;-71
2023/03/29 06:04:30;;;;;;;19.58;9.77;;;;;;;;;;5117819;27;20122;-71
2023/03/29 06:06:56;;;;;;;12.82;7.68;;;;;;;;;;5114743;27;20040;-71
2023/03/29 06:09:22;;;;;;;15.95;8.25;;;;;;;;;;5114636;27;20039;-71
2023/03/29 06:11:49;;;;;;;13.20;8.48;;;;;;;;;;5114732;28;20035;-71
2023/03/29 06:14:16;;;;;;;14.15;8.40;;;;;;;;;;5114148;28;20039;-71
2023/03/29 06:16:43;;;;;;;14.13;8.70;;;;;;;;;;5125595;27;20043;-71
2023/03/29 06:19:10;;;;;;;15.38;9.48;;;;;;;;;;5113319;27;20703;-71
2023/03/29 06:21:36;;;;;;;16.10;9.48;;;;;;;;;;5113070;28;20479;-71
2023/03/29 06:24:02;;;;;;;15.60;9.75;;;;;;;;;;5096317;28;20069;-71
2023/03/29 06:26:29;;;;;;;16.40;9.18;;;;;;;;;;5114438;28;20047;-71
2023/03/29 06:28:56;;;;;;;22.15;9.98;;;;;;;;;;5113578;28;20381;-81
2023/03/29 06:31:22;;;;;;;16.60;8.55;;;;;;;;;;5113733;28;20035;-71
2023/03/29 06:33:51;;;;;;;21.85;9.52;;;;;;;;;;5143821;27;20491;-71
2023/03/29 06:36:19;;;;;;;17.85;9.18;;;;;;;;;;5113971;28;20517;-71
2023/03/29 06:38:54;;;;;;;17.38;9.27;;;;;;;;;;5113444;28;20102;-71
2023/03/29 06:41:20;;;;;;;20.83;9.23;;;;;;;;;;5115079;28;20222;-71
2023/03/29 06:43:46;;;;;;;19.58;9.18;;;;;;;;;;5115110;28;20033;-71
2023/03/29 06:46:12;;;;;;;15.13;9.55;;;;;;;;;;5123487;27;20066;-71
2023/03/29 06:48:40;;;;;;;19.52;9.27;;;;;;;;;;5114968;27;20035;-70
2023/03/29 06:51:06;;;;;;;22.30;10.40;;;;;;;;;;5123429;28;20095;-71
2023/03/29 06:53:32;;;;;;;15.68;9.40;;;;;;;;;;5133373;28;20035;-71
2023/03/29 06:55:59;;;;;;;16.70;9.18;;;;;;;;;;5114702;28;20036;-71
2023/03/29 06:58:26;;;;;;;14.27;9.65;;;;;;;;;;5114775;28;20054;-71
2023/03/29 07:00:52;;;;;;;15.65;9.55;;;;;;;;;;5115029;27;20416;-71
2023/03/29 07:03:19;;;;;;;15.20;9.50;;;;;;;;;;5137731;27;20058;-71
2023/03/29 07:05:50;;;;;;;14.98;9.55;;;;;;;;;;5113580;28;20088;-71
2023/03/29 07:08:17;;;;;;;21.15;9.40;;;;;;;;;;5113579;28;20047;-72
2023/03/29 07:10:46;;;;;;;15.07;9.02;;;;;;;;;;5113455;28;20072;-72
2023/03/29 07:13:12;;;;;;;17.55;9.65;;;;;;;;;;5111560;28;20479;-72
2023/03/29 07:15:40;;;;;;;16.80;9.18;;;;;;;;;;5115331;27;20043;-70
2023/03/29 07:18:07;;;;;;;15.05;9.07;;;;;;;;;;5117616;27;20122;-71
2023/03/29 07:20:33;;;;;;;22.20;10.85;;;;;;;;;;5115499;27;20450;-71
2023/03/29 07:22:59;;;;;;;18.17;9.63;;;;;;;;;;5100170;27;20039;-71
2023/03/29 07:25:26;;;;;;;17.08;9.73;;;;;;;;;;5117265;27;20089;-71
2023/03/29 07:27:52;;;;;;;19.15;9.98;;;;;;;;;;5139178;27;20047;-71
2023/03/29 07:30:21;;;;;;;23.15;10.07;;;;;;;;;;5116298;27;20058;-71
2023/03/29 07:32:49;;;;;;;17.10;9.82;;;;;;;;;;5116945;27;20448;-71
2023/03/29 07:35:16;;;;;;;19.05;9.68;;;;;;;;;;5141559;27;20035;-71
2023/03/29 07:37:43;;;;;;;19.42;9.52;;;;;;;;;;5144084;27;20035;-70
2023/03/29 07:40:15;;;;;;;15.52;9.40;;;;;;;;;;5117846;27;20035;-70
2023/03/29 07:42:47;;;;;;;15.07;9.03;;;;;;;;;;5101248;27;20398;-71
2023/03/29 07:45:19;;;;;;;20.92;9.45;;;;;;;;;;5115544;27;20045;-71
2023/03/29 07:47:47;;;;;;;14.68;9.13;;;;;;;;;;5140992;27;20047;-71
2023/03/29 07:50:13;;;;;;;16.80;9.82;;;;;;;;;;5129663;27;20498;-71
2023/03/29 07:52:39;;;;;;;12.75;8.23;;;;;;;;;;5117742;27;20031;-70
2023/03/29 07:55:06;;;;;;;16.48;9.95;;;;;;;;;;5117736;27;20087;-71
2023/03/29 07:57:33;;;;;;;14.45;9.10;;;;;;;;;;5142032;27;20043;-71
2023/03/29 07:59:59;;;;;;;15.48;9.07;;;;;;;;;;5117702;27;20038;-71
2023/03/29 08:02:26;;;;;;;16.85;9.40;;;;;;;;;;5100753;27;21142;-71
2023/03/29 08:04:56;;;;;;;18.23;9.77;;;;;;;;;;5115197;27;20039;-71
2023/03/29 08:07:23;;;;;;;14.82;9.95;;;;;;;;;;5115042;27;20035;-71
2023/03/29 08:09:49;;;;;;;17.15;10.27;;;;;;;;;;5116688;27;20045;-71
2023/03/29 08:12:15;;;;;;;23.35;10.63;;;;;;;;;;5115818;27;20031;-71
2023/03/29 08:14:41;;;;;;;21.15;10.23;;;;;;;;;;5116097;27;20125;-71
2023/03/29 08:17:07;;;;;;;16.92;10.23;;;;;;;;;;5115942;27;20043;-71
2023/03/29 08:19:33;;;;;;;19.48;9.98;;;;;;;;;;5115422;27;20043;-71
2023/03/29 08:22:00;;;;;;;19.35;9.77;;;;;;;;;;5082159;27;20050;-71
2023/03/29 08:24:26;;;;;;;18.35;9.70;;;;;;;;;;5115600;27;20528;-71
2023/03/29 08:26:52;;;;;;;15.15;9.48;;;;;;;;;;5115112;27;20114;-71
2023/03/29 08:29:18;;;;;;;21.80;10.18;;;;;;;;;;5115998;27;20084;-70
2023/03/29 08:31:44;;;;;;;24.05;10.00;;;;;;;;;;5114670;27;20041;-70
2023/03/29 08:34:10;;;;;;;18.98;9.88;;;;;;;;;;5099076;27;20126;-71
2023/03/29 08:36:37;;;;;;;18.30;10.13;;;;;;;;;;5115353;27;20043;-71
2023/03/29 08:39:04;;;;;;;19.05;10.60;;;;;;;;;;5081869;27;20467;-71
2023/03/29 08:41:33;;;;;;;17.13;10.30;;;;;;;;;;5116464;27;20043;-71
2023/03/29 08:44:11;;;;;;;19.02;10.30;;;;;;;;;;5116080;27;20058;-71
2023/03/29 08:46:48;;;;;;;16.05;9.52;;;;;;;;;;5123273;27;20071;-70
2023/03/29 08:49:14;;;;;;;16.75;9.85;;;;;;;;;;5114087;27;20100;-70
2023/03/29 08:51:45;;;;;;;18.13;9.60;;;;;;;;;;5115318;27;20054;-70
2023/03/29 08:54:14;;;;;;;20.95;10.25;;;;;;;;;;5115006;27;20046;-71
2023/03/29 08:56:43;;;;;;;17.75;10.05;;;;;;;;;;5114432;27;20039;-71
2023/03/29 08:59:22;;;;;;;18.52;10.20;;;;;;;;;;5115432;27;20174;-71
2023/03/29 09:01:49;;;;;;;18.10;9.80;;;;;;;;;;5113265;27;20047;-71
2023/03/29 09:04:17;;;;;;;18.73;10.25;;;;;;;;;;5097691;27;20035;-71
2023/03/29 09:06:43;;;;;;;21.65;9.60;;;;;;;;;;5114566;27;20122;-71
2023/03/29 09:09:14;;;;;;;22.30;10.52;;;;;;;;;;5115560;27;20031;-71
2023/03/29 09:11:46;;;;;;;20.05;10.75;;;;;;;;;;5097769;27;20091;-71
2023/03/29 09:14:31;;;;;;;22.58;9.77;;;;;;;;;;5115186;27;20041;-71
2023/03/29 09:17:15;;;;;;;20.48;10.48;;;;;;;;;;5114484;27;20039;-71
2023/03/29 09:20:00;;;;;;;21.80;10.15;;;;;;;;;;5114919;27;20078;-71
2023/03/29 09:22:33;;;;;;;18.52;10.00;;;;;;;;;;5143703;27;20058;-71
2023/03/29 09:24:59;;;;;;;22.67;10.32;;;;;;;;;;5115023;27;20147;-71
2023/03/29 09:27:32;;;;;;;24.23;10.10;;;;;;;;;;5114693;27;20035;-71
2023/03/29 09:30:25;;;;;;;21.35;11.75;;;;;;;;;;5113460;27;20084;-71
2023/03/29 09:33:00;;;;;;;22.85;10.30;;;;;;;;;;5112775;27;20043;-71
2023/03/29 09:35:37;;;;;;;27.00;11.30;;;;;;;;;;5114045;27;20130;-71
2023/03/29 09:38:04;;;;;;;21.25;11.80;;;;;;;;;;5140057;27;20042;-71
2023/03/29 09:40:38;;;;;;;18.65;9.93;;;;;;;;;;5113571;28;20035;-71
2023/03/29 09:43:07;;;;;;;23.95;11.10;;;;;;;;;;5096809;27;20043;-71
2023/03/29 09:45:35;;;;;;;25.40;11.88;;;;;;;;;;5114274;27;20053;-71
2023/03/29 09:48:12;;;;;;;23.33;10.57;;;;;;;;;;5110981;27;20477;-70
2023/03/29 09:50:43;;;;;;;30.05;12.45;;;;;;;;;;5114558;27;20043;-71
2023/03/29 09:53:09;;;;;;;33.30;12.32;;;;;;;;;;5097085;27;20035;-70
2023/03/29 09:55:38;;;;;;;33.85;13.30;;;;;;;;;;5114817;27;20039;-71
2023/03/29 09:58:12;;;;;;;26.67;12.90;;;;;;;;;;5114715;27;20070;-71
2023/03/29 10:00:39;;;;;;;28.95;12.25;;;;;;;;;;5114655;27;20035;-71
2023/03/29 10:03:05;;;;;;;25.42;13.40;;;;;;;;;;5091986;27;20043;-71
2023/03/29 10:05:35;;;;;;;26.17;11.93;;;;;;;;;;5106042;27;20367;-71
2023/03/29 10:08:06;;;;;;;24.80;14.18;;;;;;;;;;5114816;27;20095;-71
2023/03/29 10:10:33;;;;;;;26.58;11.75;;;;;;;;;;5115473;28;20065;-71
2023/03/29 10:13:03;;;;;;;30.15;13.68;;;;;;;;;;5111781;27;20128;-71
2023/03/29 10:15:30;;;;;;;30.10;14.10;;;;;;;;;;5115095;27;20114;-71
2023/03/29 10:18:02;;;;;;;26.88;13.57;;;;;;;;;;5115301;28;20035;-71
2023/03/29 10:20:29;;;;;;;26.27;13.55;;;;;;;;;;5111794;28;20039;-72
2023/03/29 10:22:56;;;;;;;28.75;14.40;;;;;;;;;;5114271;27;20143;-71
2023/03/29 10:25:32;;;;;;;28.25;13.05;;;;;;;;;;5097408;28;20051;-70
2023/03/29 10:28:07;;;;;;;26.20;12.90;;;;;;;;;;5116116;28;20051;-71
2023/03/29 10:30:36;;;;;;;27.85;13.80;;;;;;;;;;5115580;28;20039;-71
2023/03/29 10:33:02;;;;;;;30.25;12.75;;;;;;;;;;5115940;28;20039;-71
2023/03/29 10:35:32;;;;;;;26.92;13.45;;;;;;;;;;5139364;27;20088;-71
2023/03/29 10:37:58;;;;;;;28.98;13.68;;;;;;;;;;5114190;28;20049;-71
2023/03/29 10:40:25;;;;;;;34.00;14.50;;;;;;;;;;5097722;28;20038;-71
2023/03/29 10:42:56;;;;;;;33.50;15.20;;;;;;;;;;5097451;28;20096;-71
2023/03/29 10:45:27;;;;;;;30.50;14.65;;;;;;;;;;5097597;28;20107;-72
2023/03/29 10:47:55;;;;;;;34.60;15.82;;;;;;;;;;5114240;28;20122;-71
2023/03/29 10:50:21;;;;;;;27.00;15.52;;;;;;;;;;5115857;27;20031;-71
2023/03/29 10:52:49;;;;;;;30.73;17.15;;;;;;;;;;5117808;27;20031;-71
2023/03/29 10:55:15;;;;;;;29.48;16.67;;;;;;;;;;5118992;27;20084;-71
2023/03/29 10:57:44;;;;;;;35.17;18.33;;;;;;;;;;5101231;27;20115;-72
2023/03/29 11:00:14;;;;;;;33.15;19.00;;;;;;;;;;5118330;27;20129;-72
2023/03/29 11:02:57;;;;;;;32.28;17.15;;;;;;;;;;5115352;27;20078;-72
2023/03/29 11:05:30;;;;;;;38.15;18.08;;;;;;;;;;5119345;27;20056;-72
2023/03/29 11:08:13;;;;;;;36.78;18.75;;;;;;;;;;5102176;27;20110;-72
2023/03/29 11:10:42;;;;;;;34.10;18.48;;;;;;;;;;5118844;27;20151;-72
2023/03/29 11:13:18;;;;;;;33.88;19.63;;;;;;;;;;5101277;27;20406;-72
2023/03/29 11:16:11;;;;;;;32.80;18.35;;;11.00;99.90;;;;;;5117610;27;20031;-71
2023/03/29 11:18:37;;;;;;;41.55;17.80;;;;;;;;;;5117726;27;20042;-71
2023/03/29 11:21:06;;;;;;;40.92;18.15;;;;;;;;;;5117821;27;20505;-71
2023/03/29 11:23:32;;;;;;;34.75;19.48;;;;;;;;;;5098234;27;20059;-71
2023/03/29 11:26:08;;;;;;;35.90;19.05;;;;;;;;;;5117464;27;20043;-71
2023/03/29 11:28:34;;;;;;;39.83;18.83;;;;;;;;;;5101186;27;20391;-72
2023/03/29 11:31:06;;;;;;;45.55;19.40;;;;;;;;;;5117626;27;20096;-71
2023/03/29 11:33:36;;;;;;;39.97;18.88;;;;;;;;;;5117231;27;20035;-71
2023/03/29 11:36:06;;;;;;;39.45;19.75;;;;;;;;;;5115125;27;20039;-70
2023/03/29 11:38:36;;;;;;;38.30;19.67;;;;;;;;;;5099920;27;20050;-72
2023/03/29 11:41:04;;;;;;;39.00;19.27;;;;;;;;;;5116914;27;20049;-71
2023/03/29 11:43:51;;;;;;;37.05;19.13;;;;;;;;;;5116944;27;20041;-71
2023/03/29 11:46:27;;;;;;;35.75;19.35;;;;;;;;;;5099912;27;20035;-71
2023/03/29 11:49:00;;;;;;;43.22;19.33;;;;;;;;;;5117602;27;20039;-70
2023/03/29 11:51:29;;;;;;;43.25;20.73;;;;;;;;;;5117354;27;20039;-71
2023/03/29 11:54:00;;;;;;;37.35;18.88;;;;;;;;;;5117240;27;20071;-71
2023/03/29 11:56:39;;;;;;;45.03;19.88;;;;;;;;;;5117326;27;20046;-70
2023/03/29 11:59:11;;;;;;;35.38;19.73;;;;;;;;;;5116722;27;20027;-71
2023/03/29 12:01:40;;;;;;;34.80;19.15;;;;;;;;;;5116103;28;20031;-71
2023/03/29 12:04:10;;;;;;;36.65;18.33;;;;;;;;;;5099751;27;20146;-70
2023/03/29 12:06:41;;;;;;;35.95;18.00;;;;;;;;;;5117205;27;20035;-71
2023/03/29 12:09:18;;;;;;;40.67;19.98;;;;;;;;;;5116657;27;20490;-71
2023/03/29 12:11:56;;;;;;;33.40;17.95;;;;;;;;;;5117132;27;20035;-71
2023/03/29 12:14:28;;;;;;;33.40;18.95;;;;;;;;;;5117293;27;20031;-71
2023/03/29 12:16:54;;;;;;;;;;;;;;;;;;5116800;27;20038;-71
2023/03/29 12:19:20;;;;;;;;;;;;;;;;;;5116479;27;19923;-71
2023/03/29 12:21:46;;;;;;;;;;;;;;;;;;5115351;27;20771;-71
2023/03/29 12:24:14;;;;;;;;;;;11.70;99.90;;;;;;5128906;27;19923;-71
2023/03/29 12:26:40;;;;;;;;;;;;;;;;;;5116741;27;19915;-71
2023/03/29 12:29:07;;;;;;;;;;;;;;;;;;5125885;27;19984;-71
2023/03/29 12:31:33;;;;;;;;;;;;;;;;;;5099474;27;19915;-71
2023/03/29 12:34:11;;;;;;;;;;;11.60;99.90;;;;;;5116843;27;19916;-72
2023/03/29 12:36:50;;;;;;;;;;;11.60;99.90;;;;;;5119156;27;19916;-71
2023/03/29 12:39:16;;;;;;;;;;;;;;;;;;5114186;27;20034;-72
2023/03/29 12:41:47;;;;;;;;;;;11.90;99.90;;;;;;5116471;27;19947;-71
2023/03/29 12:44:19;;;;;;;;;;;11.60;99.90;;;;;;5122139;27;19922;-72
2023/03/29 12:46:45;;;;;;;;;;;;;;;;;;5140598;27;19919;-72
2023/03/29 12:49:11;;;;;;;;;;;;;;;;;;5116246;27;19915;-71
2023/03/29 12:51:37;;;;;;;;;;;;;;;;;;5115928;27;19922;-71
2023/03/29 12:54:03;;;;;;;;;;;;;;;;;;5125724;27;19968;-71
2023/03/29 12:56:39;;;;;;;;;;;11.80;99.90;;;;;;5116433;27;19966;-71
2023/03/29 12:59:06;;;;;;;;;;;;;;;;;;5115548;27;19923;-72
2023/03/29 13:01:33;;;;;;;;;;;12.00;99.90;;;;;;5144666;27;19962;-71
2023/03/29 13:03:59;;;;;;;;;;;;;;;;;;5115928;27;19915;-71
2023/03/29 13:06:25;;;;;;;;;;;;;;;;;;5098826;27;19922;-71
2023/03/29 13:08:52;;;;;;;;;;;;;;;;;;5106887;27;20007;-71
2023/03/29 13:11:18;;;;;;;;;;;;;;;;;;5125399;27;20002;-72
2023/03/29 13:13:44;;;;;;;;;;;12.00;99.90;;;;;;5115747;27;20320;-72
2023/03/29 13:16:09;;;;;;;;;;;12.20;99.90;;;;;;5115966;27;19923;-72
2023/03/29 13:18:56;;;;;;;;;;;12.20;99.90;;;;;;5140308;27;20631;-72
2023/03/29 13:21:22;;;;;;;;;;;;;;;;;;5140932;27;19923;-72
2023/03/29 13:23:48;;;;;;;;;;;;;;;;;;5115739;27;20014;-72
2023/03/29 13:26:16;;;;;;;;;;;;;;;;;;5115887;27;20292;-72
2023/03/29 13:28:54;;;;;;;;;;;12.50;99.90;;;;;;5115992;27;20283;-72
2023/03/29 13:31:22;;;;;;;;;;;12.60;99.90;;;;;;5115740;27;19959;-72
2023/03/29 13:33:48;;;;;;;;;;;;;;;;;;5143792;27;20378;-72
2023/03/29 13:36:15;;;;;;;;;;;;;;;;;;5099035;27;19934;-72
2023/03/29 13:38:45;;;;;;;;;;;13.10;99.90;;;;;;5127070;27;19920;-71
2023/03/29 13:41:12;;;;;;;;;;;;;;;;;;5116193;27;19981;-72
2023/03/29 13:43:43;;;;;;;;;;;13.60;99.90;;;;;;5116250;27;19915;-72
2023/03/29 13:46:09;;;;;;;;;;;;;;;;;;5116418;27;19915;-72
2023/03/29 13:48:36;;;;;;;;;;;;;;;;;;5115960;27;20310;-72
2023/03/29 13:51:06;;;;;;;;;;;;;;;;;;5116130;27;19915;-71
2023/03/29 13:53:36;;;;;;;;;;;14.10;99.90;;;;;;5124671;27;19915;-71
2023/03/29 13:56:02;;;;;;;;;;;;;;;;;;5141288;27;20256;-71
2023/03/29 13:58:40;;;;;;;;;;;14.40;99.90;;;;;;5116047;27;19916;-72
2023/03/29 14:01:10;;;;;;;;;;;14.60;99.90;;;;;;5114228;27;19916;-72
2023/03/29 14:03:41;;;;;;;;;;;14.60;99.90;;;;;;5115863;27;19915;-72
2023/03/29 14:06:08;;;;;;;;;;;14.50;99.90;;;;;;5099004;27;19922;-71
2023/03/29 14:08:34;;;;;;;;;;;;;;;;;;5098744;27;19965;-72
2023/03/29 14:11:00;;;;;;;;;;;;;;;;;;5121727;27;19924;-72
2023/03/29 14:13:26;;;;;;;;;;;;;;;;;;5115522;27;19915;-73
2023/03/29 14:15:54;;;;;;;;;;;13.70;99.90;;;;;;5115921;28;19922;-72
2023/03/29 14:18:21;;;;;;;;;;;13.80;99.90;;;;;;5115618;28;20010;-71
2023/03/29 14:20:53;;;;;;;;;;;;;;;;;;5115370;28;19915;-72
2023/03/29 14:23:20;;;;;;;;;;;;;;;;;;5098504;28;19915;-72
2023/03/29 14:25:45;;;;;;;;;;;13.60;99.90;;;;;;5114553;28;19942;-72
2023/03/29 14:28:11;;;;;;;;;;;;;;;;;;5075691;28;20371;-72
2023/03/29 14:30:37;;;;;;;;;;;13.70;99.90;;;;;;5115367;28;20016;-72
2023/03/29 14:33:03;;;;;;;;;;;;;;;;;;5114629;28;20014;-72
2023/03/29 14:35:30;;;;;;;;;;;;;;;;;;5115412;28;19922;-72
2023/03/29 14:37:55;;;;;;;;;;;13.60;99.90;;;;;;5113248;28;19915;-72
2023/03/29 14:40:22;;;;;;;;;;;13.70;99.90;;;;;;5112240;28;20264;-72
2023/03/29 14:42:49;;;;;;;;;;;;;;;;;;5115312;28;19988;-71
2023/03/29 14:45:15;;;;;;;;;;;;;;;;;;5115627;28;19961;-72
2023/03/29 14:47:41;;;;;;;;;;;13.80;99.90;;;;;;5115492;28;19919;-72
2023/03/29 14:50:27;;;;;;;;;;;13.90;99.90;;;;;;5115785;28;20422;-72